createdAt,value
2019-03-19T00:00:25.431Z,5.21
2019-03-19T00:01:25.529Z,5.29
2019-03-19T00:02:25.401Z,5.15
2019-03-19T00:03:25.386Z,5.17
2019-03-19T00:04:25.367Z,5.14
2019-03-19T00:05:25.353Z,5.14
2019-03-19T00:06:25.349Z,5.07
2019-03-19T00:07:25.437Z,5.04
2019-03-19T00:08:25.339Z,5.12
2019-03-19T00:09:25.317Z,4.97
2019-03-19T00:10:25.318Z,5.04
2019-03-19T00:11:25.321Z,5.04
2019-03-19T00:12:25.394Z,4.99
2019-03-19T00:13:25.363Z,4.99
2019-03-19T00:14:26.704Z,5.07
2019-03-19T00:15:25.305Z,5.02
2019-03-19T00:16:25.256Z,5.02
2019-03-19T00:17:25.231Z,4.99
2019-03-19T00:18:25.209Z,5.04
2019-03-19T00:19:30.267Z,5.04
2019-03-19T00:20:25.250Z,5.00
2019-03-19T00:21:25.188Z,5.00
2019-03-19T00:22:25.881Z,5.00
2019-03-19T00:23:25.169Z,5.04
2019-03-19T00:24:25.368Z,5.04
2019-03-19T00:25:29.953Z,5.04
2019-03-19T00:26:26.122Z,4.97
2019-03-19T00:27:25.118Z,4.97
2019-03-19T00:28:25.162Z,4.97
2019-03-19T00:29:25.086Z,4.96
2019-03-19T00:30:25.366Z,5.00
2019-03-19T00:31:25.167Z,5.02
2019-03-19T00:32:25.364Z,5.02
2019-03-19T00:33:25.046Z,5.02
2019-03-19T00:34:25.250Z,4.93
2019-03-19T00:35:25.025Z,5.02
2019-03-19T00:36:25.025Z,4.96
2019-03-19T00:37:25.029Z,4.96
2019-03-19T00:38:25.105Z,4.86
2019-03-19T00:39:24.975Z,4.90
2019-03-19T00:40:24.964Z,4.87
2019-03-19T00:41:24.955Z,4.84
2019-03-19T00:42:25.062Z,4.89
2019-03-19T00:43:25.067Z,4.86
2019-03-19T00:44:25.061Z,4.89
2019-03-19T00:45:24.985Z,4.93
2019-03-19T00:46:24.905Z,4.86
2019-03-19T00:47:24.915Z,4.82
2019-03-19T00:48:24.893Z,4.77
2019-03-19T00:49:24.867Z,4.75
2019-03-19T00:50:25.592Z,4.82
2019-03-19T00:51:24.850Z,4.78
2019-03-19T00:52:24.861Z,4.68
2019-03-19T00:53:24.825Z,4.71
2019-03-19T00:54:24.820Z,4.77
2019-03-19T00:55:24.929Z,4.63
2019-03-19T00:56:24.796Z,4.70
2019-03-19T00:57:24.784Z,4.68
2019-03-19T00:58:24.769Z,4.78
2019-03-19T00:59:24.765Z,4.73
2019-03-19T01:00:24.767Z,4.66
2019-03-19T01:01:24.857Z,4.63
2019-03-19T01:02:24.809Z,4.58
2019-03-19T01:03:24.799Z,4.55
2019-03-19T01:04:24.720Z,4.58
2019-03-19T01:05:24.694Z,4.63
2019-03-19T01:06:25.008Z,4.56
2019-03-19T01:07:24.679Z,4.59
2019-03-19T01:08:24.651Z,4.58
2019-03-19T01:09:24.892Z,4.49
2019-03-19T01:10:24.660Z,4.41
2019-03-19T01:11:24.652Z,4.50
2019-03-19T01:12:24.661Z,4.48
2019-03-19T01:13:24.611Z,4.32
2019-03-19T01:14:24.784Z,4.26
2019-03-19T01:15:24.591Z,4.23
2019-03-19T01:16:24.778Z,4.26
2019-03-19T01:17:24.676Z,4.20
2019-03-19T01:18:24.557Z,4.13
2019-03-19T01:19:24.685Z,4.20
2019-03-19T01:20:24.587Z,4.19
2019-03-19T01:21:24.881Z,4.08
2019-03-19T01:22:24.526Z,4.06
2019-03-19T01:23:24.538Z,4.12
2019-03-19T01:24:24.541Z,4.12
2019-03-19T01:25:25.102Z,4.10
2019-03-19T01:26:24.816Z,4.10
2019-03-19T01:27:24.507Z,4.17
2019-03-19T01:28:24.511Z,4.23
2019-03-19T01:29:24.421Z,4.26
2019-03-19T01:30:24.408Z,4.40
2019-03-19T01:31:24.396Z,4.45
2019-03-19T01:32:24.586Z,4.45
2019-03-19T01:33:24.401Z,4.58
2019-03-19T01:34:24.635Z,4.58
2019-03-19T01:35:24.378Z,4.58
2019-03-19T01:36:24.355Z,4.58
2019-03-19T01:37:24.349Z,4.66
2019-03-19T01:38:24.326Z,4.63
2019-03-19T01:39:24.323Z,4.63
2019-03-19T01:40:24.622Z,4.67
2019-03-19T01:41:24.287Z,4.60
2019-03-19T01:42:24.278Z,4.74
2019-03-19T01:43:24.272Z,4.73
2019-03-19T01:44:24.262Z,4.60
2019-03-19T01:45:24.273Z,4.70
2019-03-19T01:46:24.379Z,4.59
2019-03-19T01:47:24.813Z,4.74
2019-03-19T01:48:24.217Z,4.68
2019-03-19T01:49:24.200Z,4.70
2019-03-19T01:50:24.201Z,4.80
2019-03-19T01:51:24.239Z,4.63
2019-03-19T01:52:24.493Z,4.67
2019-03-19T01:53:24.161Z,4.70
2019-03-19T01:54:24.148Z,4.66
2019-03-19T01:55:25.642Z,4.70
2019-03-19T01:56:24.147Z,4.66
2019-03-19T01:57:24.343Z,4.70
2019-03-19T01:58:24.098Z,4.71
2019-03-19T01:59:24.097Z,4.89
2019-03-19T02:00:24.078Z,4.66
2019-03-19T02:01:24.077Z,4.87
2019-03-19T02:02:24.057Z,4.77
2019-03-19T02:03:24.199Z,4.78
2019-03-19T02:04:24.035Z,4.84
2019-03-19T02:05:24.020Z,4.82
2019-03-19T02:06:24.024Z,4.77
2019-03-19T02:07:24.004Z,4.82
2019-03-19T02:08:24.070Z,4.73
2019-03-19T02:09:24.397Z,4.86
2019-03-19T02:10:24.277Z,4.80
2019-03-19T02:11:24.131Z,4.90
2019-03-19T02:12:23.962Z,4.75
2019-03-19T02:13:23.934Z,4.86
2019-03-19T02:14:24.040Z,4.90
2019-03-19T02:15:23.915Z,4.77
2019-03-19T02:16:23.909Z,4.86
2019-03-19T02:17:23.891Z,4.84
2019-03-19T02:18:23.888Z,4.80
2019-03-19T02:19:24.005Z,4.77
2019-03-19T02:20:23.988Z,4.67
2019-03-19T02:21:23.875Z,4.71
2019-03-19T02:22:23.850Z,4.70
2019-03-19T02:23:23.868Z,4.74
2019-03-19T02:24:23.836Z,4.71
2019-03-19T02:25:24.838Z,4.67
2019-03-19T02:26:23.790Z,4.70
2019-03-19T02:27:23.801Z,4.73
2019-03-19T02:28:23.771Z,4.63
2019-03-19T02:29:23.765Z,4.75
2019-03-19T02:30:23.835Z,4.73
2019-03-19T02:31:23.860Z,4.67
2019-03-19T02:32:23.726Z,4.63
2019-03-19T02:33:23.717Z,4.62
2019-03-19T02:34:26.633Z,4.66
2019-03-19T02:35:23.717Z,4.60
2019-03-19T02:36:24.850Z,4.58
2019-03-19T02:37:23.681Z,4.59
2019-03-19T02:38:23.659Z,4.60
2019-03-19T02:39:23.650Z,4.56
2019-03-19T02:40:23.687Z,4.58
2019-03-19T02:41:23.854Z,4.59
2019-03-19T02:42:23.628Z,4.55
2019-03-19T02:43:23.605Z,4.60
2019-03-19T02:44:23.594Z,4.56
2019-03-19T02:45:23.629Z,4.53
2019-03-19T02:46:23.581Z,4.58
2019-03-19T02:47:23.674Z,4.59
2019-03-19T02:48:23.560Z,4.53
2019-03-19T02:49:23.542Z,4.55
2019-03-19T02:50:23.535Z,4.56
2019-03-19T02:51:23.520Z,4.44
2019-03-19T02:52:23.773Z,4.45
2019-03-19T02:53:23.627Z,4.40
2019-03-19T02:54:23.620Z,4.31
2019-03-19T02:55:23.554Z,4.30
2019-03-19T02:56:32.702Z,4.34
2019-03-19T02:57:24.540Z,4.38
2019-03-19T02:58:23.442Z,4.38
2019-03-19T02:59:23.625Z,4.30
2019-03-19T03:00:23.418Z,4.26
2019-03-19T03:01:23.402Z,4.32
2019-03-19T03:02:23.403Z,4.35
2019-03-19T03:03:23.406Z,4.28
2019-03-19T03:04:23.385Z,4.45
2019-03-19T03:05:23.491Z,4.48
2019-03-19T03:06:23.366Z,4.40
2019-03-19T03:07:30.301Z,4.38
2019-03-19T03:08:23.412Z,4.37
2019-03-19T03:09:23.320Z,4.35
2019-03-19T03:10:23.307Z,4.41
2019-03-19T03:11:23.363Z,4.41
2019-03-19T03:12:23.293Z,4.38
2019-03-19T03:13:23.279Z,4.42
2019-03-19T03:14:23.352Z,4.31
2019-03-19T03:15:23.256Z,4.41
2019-03-19T03:16:23.267Z,4.40
2019-03-19T03:17:23.360Z,4.44
2019-03-19T03:18:23.233Z,4.37
2019-03-19T03:19:23.213Z,4.17
2019-03-19T03:20:23.207Z,4.24
2019-03-19T03:21:23.408Z,4.20
2019-03-19T03:22:23.174Z,4.12
2019-03-19T03:23:23.397Z,4.10
2019-03-19T03:24:23.164Z,4.05
2019-03-19T03:25:23.156Z,3.98
2019-03-19T03:26:23.131Z,3.98
2019-03-19T03:27:23.122Z,3.98
2019-03-19T03:28:23.353Z,3.98
2019-03-19T03:29:23.114Z,3.87
2019-03-19T03:30:23.138Z,3.83
2019-03-19T03:31:23.289Z,3.83
2019-03-19T03:32:23.076Z,3.84
2019-03-19T03:33:23.406Z,3.87
2019-03-19T03:34:23.073Z,3.88
2019-03-19T03:35:23.052Z,3.96
2019-03-19T03:36:23.082Z,3.96
2019-03-19T03:37:23.021Z,3.99
2019-03-19T03:38:23.125Z,4.04
2019-03-19T03:39:22.995Z,4.06
2019-03-19T03:40:22.983Z,4.05
2019-03-19T03:41:22.975Z,4.19
2019-03-19T03:42:22.964Z,4.14
2019-03-19T03:43:22.972Z,4.12
2019-03-19T03:44:23.105Z,4.17
2019-03-19T03:45:22.922Z,4.17
2019-03-19T03:46:23.069Z,4.26
2019-03-19T03:47:24.112Z,4.26
2019-03-19T03:48:22.906Z,4.17
2019-03-19T03:49:22.896Z,4.24
2019-03-19T03:50:22.905Z,4.26
2019-03-19T03:51:22.862Z,4.37
2019-03-19T03:52:23.026Z,4.42
2019-03-19T03:53:22.873Z,4.40
2019-03-19T03:54:22.834Z,4.32
2019-03-19T03:55:22.910Z,4.41
2019-03-19T03:56:22.828Z,4.42
2019-03-19T03:57:22.798Z,4.32
2019-03-19T03:58:22.943Z,4.48
2019-03-19T03:59:22.801Z,4.48
2019-03-19T04:00:22.775Z,4.49
2019-03-19T04:01:22.822Z,4.42
2019-03-19T04:02:22.773Z,4.42
2019-03-19T04:03:22.869Z,4.48
2019-03-19T04:04:22.846Z,4.42
2019-03-19T04:05:22.728Z,4.45
2019-03-19T04:06:22.735Z,4.48
2019-03-19T04:07:22.688Z,4.45
2019-03-19T04:08:22.832Z,4.40
2019-03-19T04:09:23.041Z,4.44
2019-03-19T04:10:22.672Z,4.41
2019-03-19T04:11:22.652Z,4.40
2019-03-19T04:12:22.645Z,4.45
2019-03-19T04:13:22.629Z,4.34
2019-03-19T04:14:22.616Z,4.31
2019-03-19T04:15:22.839Z,4.40
2019-03-19T04:16:22.616Z,4.40
2019-03-19T04:17:22.873Z,4.48
2019-03-19T04:18:22.738Z,4.44
2019-03-19T04:19:22.569Z,4.44
2019-03-19T04:20:22.683Z,4.45
2019-03-19T04:21:22.554Z,4.42
2019-03-19T04:22:22.561Z,4.55
2019-03-19T04:23:22.669Z,4.45
2019-03-19T04:24:22.566Z,4.45
2019-03-19T04:25:22.546Z,4.48
2019-03-19T04:26:22.571Z,4.48
2019-03-19T04:27:22.572Z,4.44
2019-03-19T04:28:22.535Z,4.49
2019-03-19T04:29:22.811Z,4.44
2019-03-19T04:30:22.502Z,4.45
2019-03-19T04:31:22.432Z,4.45
2019-03-19T04:32:22.690Z,4.59
2019-03-19T04:33:22.429Z,4.55
2019-03-19T04:34:22.408Z,4.59
2019-03-19T04:35:22.385Z,4.60
2019-03-19T04:36:22.503Z,4.45
2019-03-19T04:37:24.441Z,4.50
2019-03-19T04:38:22.381Z,4.55
2019-03-19T04:39:22.385Z,4.59
2019-03-19T04:40:22.546Z,4.56
2019-03-19T04:41:22.327Z,4.55
2019-03-19T04:42:22.322Z,4.58
2019-03-19T04:43:22.301Z,4.59
2019-03-19T04:44:22.295Z,4.44
2019-03-19T04:45:22.280Z,4.56
2019-03-19T04:46:22.410Z,4.49
2019-03-19T04:47:22.255Z,4.42
2019-03-19T04:48:22.243Z,4.50
2019-03-19T04:49:22.246Z,4.48
2019-03-19T04:50:22.231Z,4.56
2019-03-19T04:51:22.223Z,4.42
2019-03-19T04:52:22.291Z,4.48
2019-03-19T04:53:24.113Z,4.45
2019-03-19T04:54:22.278Z,4.60
2019-03-19T04:55:22.188Z,4.59
2019-03-19T04:56:22.230Z,4.59
2019-03-19T04:57:26.726Z,4.58
2019-03-19T04:58:23.675Z,4.50
2019-03-19T04:59:22.124Z,4.48
2019-03-19T05:00:22.140Z,4.62
2019-03-19T05:01:22.110Z,4.55
2019-03-19T05:02:22.115Z,4.58
2019-03-19T05:03:22.086Z,4.58
2019-03-19T05:04:22.294Z,4.58
2019-03-19T05:05:22.070Z,4.58
2019-03-19T05:06:22.053Z,4.52
2019-03-19T05:07:22.052Z,4.55
2019-03-19T05:08:22.039Z,4.53
2019-03-19T05:09:22.191Z,4.55
2019-03-19T05:10:22.017Z,4.55
2019-03-19T05:11:21.994Z,4.56
2019-03-19T05:12:21.988Z,4.63
2019-03-19T05:13:21.995Z,4.59
2019-03-19T05:14:22.119Z,4.59
2019-03-19T05:15:21.972Z,4.59
2019-03-19T05:16:22.081Z,4.59
2019-03-19T05:17:21.933Z,4.59
2019-03-19T05:18:21.922Z,4.59
2019-03-19T05:19:21.919Z,4.58
2019-03-19T05:20:22.028Z,4.58
2019-03-19T05:21:21.979Z,4.55
2019-03-19T05:22:21.873Z,4.58
2019-03-19T05:23:21.861Z,4.71
2019-03-19T05:24:21.851Z,4.60
2019-03-19T05:25:21.893Z,4.67
2019-03-19T05:26:22.093Z,4.71
2019-03-19T05:27:21.820Z,4.60
2019-03-19T05:28:21.838Z,4.63
2019-03-19T05:29:21.803Z,4.71
2019-03-19T05:30:21.794Z,4.63
2019-03-19T05:31:21.939Z,4.77
2019-03-19T05:32:21.761Z,4.71
2019-03-19T05:33:21.765Z,4.78
2019-03-19T05:34:21.911Z,4.84
2019-03-19T05:35:21.888Z,4.77
2019-03-19T05:36:21.937Z,4.67
2019-03-19T05:37:21.763Z,4.74
2019-03-19T05:38:21.735Z,4.67
2019-03-19T05:39:22.021Z,4.73
2019-03-19T05:40:21.693Z,4.71
2019-03-19T05:41:21.725Z,4.77
2019-03-19T05:42:21.666Z,4.71
2019-03-19T05:43:21.760Z,4.68
2019-03-19T05:44:21.835Z,4.78
2019-03-19T05:45:21.643Z,4.70
2019-03-19T05:46:22.660Z,4.80
2019-03-19T05:47:21.606Z,4.70
2019-03-19T05:48:23.210Z,4.77
2019-03-19T05:49:21.615Z,4.73
2019-03-19T05:50:21.659Z,4.73
2019-03-19T05:51:21.597Z,4.67
2019-03-19T05:52:22.032Z,4.77
2019-03-19T05:53:21.599Z,4.71
2019-03-19T05:54:21.782Z,4.71
2019-03-19T05:55:21.676Z,4.71
2019-03-19T05:56:21.785Z,4.80
2019-03-19T05:57:21.881Z,4.84
2019-03-19T05:58:21.782Z,4.80
2019-03-19T05:59:21.870Z,4.75
2019-03-19T06:00:21.941Z,4.80
2019-03-19T06:01:21.592Z,4.80
2019-03-19T06:02:21.729Z,4.82
2019-03-19T06:03:21.922Z,4.80
2019-03-19T06:04:21.752Z,4.90
2019-03-19T06:05:21.745Z,4.89
2019-03-19T06:06:21.637Z,4.94
2019-03-19T06:07:21.751Z,4.94
2019-03-19T06:08:36.231Z,5.02
2019-03-19T06:09:28.022Z,5.00
2019-03-19T06:10:21.629Z,5.20
2019-03-19T06:11:23.847Z,5.23
2019-03-19T06:12:21.701Z,5.30
2019-03-19T06:13:21.924Z,5.32
2019-03-19T06:14:21.955Z,5.44
2019-03-19T06:15:21.740Z,5.46
2019-03-19T06:16:21.674Z,5.56
2019-03-19T06:17:21.876Z,5.64
2019-03-19T06:18:21.629Z,5.68
2019-03-19T06:19:22.978Z,5.72
2019-03-19T06:20:21.873Z,5.82
2019-03-19T06:21:22.132Z,5.84
2019-03-19T06:22:21.806Z,6.02
2019-03-19T06:23:21.899Z,6.19
2019-03-19T06:24:27.026Z,6.72
2019-03-19T06:25:22.676Z,7.35
2019-03-19T06:26:22.863Z,7.75
2019-03-19T06:27:22.241Z,8.37
2019-03-19T06:28:21.635Z,8.81
2019-03-19T06:29:21.653Z,8.55
2019-03-19T06:30:22.549Z,8.37
2019-03-19T06:31:22.783Z,9.03
2019-03-19T06:32:21.791Z,9.00
2019-03-19T06:33:21.699Z,8.61
2019-03-19T06:34:21.647Z,8.51
2019-03-19T06:35:21.664Z,8.42
2019-03-19T06:36:21.894Z,8.41
2019-03-19T06:37:22.245Z,8.87
2019-03-19T06:38:21.739Z,9.73
2019-03-19T06:39:21.699Z,9.36
2019-03-19T06:40:21.730Z,9.26
2019-03-19T06:41:21.674Z,10.25
2019-03-19T06:42:22.285Z,11.00
2019-03-19T06:43:21.661Z,10.40
2019-03-19T06:44:22.375Z,10.25
2019-03-19T06:45:23.141Z,9.95
2019-03-19T06:46:22.196Z,9.46
2019-03-19T06:47:22.357Z,9.00
2019-03-19T06:48:20.934Z,8.82
2019-03-19T06:49:21.339Z,9.10
2019-03-19T06:50:22.018Z,9.44
2019-03-19T06:51:20.904Z,10.13
2019-03-19T06:52:22.133Z,10.10
2019-03-19T06:53:20.868Z,10.53
2019-03-19T06:54:21.780Z,10.44
2019-03-19T06:55:20.860Z,11.10
2019-03-19T06:56:20.853Z,11.45
2019-03-19T06:57:20.851Z,10.79
2019-03-19T06:58:21.654Z,10.15
2019-03-19T06:59:20.821Z,9.73
2019-03-19T07:00:21.694Z,9.29
2019-03-19T07:01:20.791Z,9.11
2019-03-19T07:02:20.837Z,8.84
2019-03-19T07:03:21.349Z,8.69
2019-03-19T07:04:21.035Z,8.88
2019-03-19T07:05:20.926Z,9.04
2019-03-19T07:06:21.938Z,8.97
2019-03-19T07:07:20.715Z,8.95
2019-03-19T07:08:20.741Z,8.92
2019-03-19T07:09:22.358Z,10.49
2019-03-19T07:10:20.682Z,11.75
2019-03-19T07:11:20.863Z,12.97
2019-03-19T07:12:20.666Z,13.22
2019-03-19T07:13:20.664Z,12.46
2019-03-19T07:14:20.645Z,11.54
2019-03-19T07:15:20.623Z,10.54
2019-03-19T07:16:20.803Z,9.89
2019-03-19T07:17:20.883Z,9.55
2019-03-19T07:18:20.617Z,9.22
2019-03-19T07:19:20.597Z,9.19
2019-03-19T07:20:22.069Z,8.81
2019-03-19T07:21:20.747Z,8.73
2019-03-19T07:22:20.627Z,9.37
2019-03-19T07:23:21.240Z,9.61
2019-03-19T07:24:20.587Z,9.23
2019-03-19T07:25:20.805Z,9.84
2019-03-19T07:26:20.609Z,10.92
2019-03-19T07:27:20.633Z,12.22
2019-03-19T07:28:22.301Z,13.28
2019-03-19T07:29:21.619Z,12.29
2019-03-19T07:30:20.454Z,12.35
2019-03-19T07:31:30.426Z,13.72
2019-03-19T07:32:21.601Z,13.31
2019-03-19T07:33:20.427Z,12.25
2019-03-19T07:34:20.721Z,13.77
2019-03-19T07:35:20.411Z,14.03
2019-03-19T07:36:20.408Z,15.36
2019-03-19T07:37:20.399Z,15.18
2019-03-19T07:38:20.441Z,16.01
2019-03-19T07:39:20.353Z,17.16
2019-03-19T07:40:20.627Z,17.86
2019-03-19T07:41:20.465Z,17.08
2019-03-19T07:42:20.369Z,17.95
2019-03-19T07:43:20.327Z,17.39
2019-03-19T07:44:20.313Z,16.39
2019-03-19T07:45:20.294Z,14.65
2019-03-19T07:46:20.336Z,13.53
2019-03-19T07:47:25.905Z,14.00
2019-03-19T07:48:20.285Z,13.63
2019-03-19T07:49:20.278Z,14.29
2019-03-19T07:50:20.234Z,14.05
2019-03-19T07:51:20.299Z,16.04
2019-03-19T07:52:20.646Z,17.85
2019-03-19T07:53:20.204Z,19.45
2019-03-19T07:54:20.206Z,20.22
2019-03-19T07:55:20.269Z,19.11
2019-03-19T07:56:20.418Z,17.12
2019-03-19T07:57:20.769Z,18.74
2019-03-19T07:58:31.375Z,18.15
2019-03-19T07:59:21.683Z,17.29
2019-03-19T08:00:20.193Z,16.46
2019-03-19T08:01:20.116Z,15.28
2019-03-19T08:02:20.167Z,14.54
2019-03-19T08:03:20.394Z,13.72
2019-03-19T08:04:20.085Z,13.46
2019-03-19T08:05:20.082Z,12.93
2019-03-19T08:06:20.061Z,12.53
2019-03-19T08:07:20.047Z,12.79
2019-03-19T08:08:20.225Z,12.46
2019-03-19T08:09:20.105Z,11.75
2019-03-19T08:10:20.060Z,11.29
2019-03-19T08:11:20.005Z,10.92
2019-03-19T08:12:20.126Z,10.79
2019-03-19T08:13:20.203Z,10.97
2019-03-19T08:14:20.193Z,11.35
2019-03-19T08:15:19.967Z,11.55
2019-03-19T08:16:27.420Z,11.81
2019-03-19T08:17:21.008Z,12.37
2019-03-19T08:18:19.927Z,12.15
2019-03-19T08:19:20.095Z,11.65
2019-03-19T08:20:19.912Z,11.59
2019-03-19T08:21:20.042Z,12.32
2019-03-19T08:22:19.931Z,13.59
2019-03-19T08:23:19.873Z,14.86
2019-03-19T08:24:19.866Z,14.03
2019-03-19T08:25:19.881Z,14.69
2019-03-19T08:26:19.988Z,17.16
2019-03-19T08:27:19.999Z,19.11
2019-03-19T08:28:19.834Z,20.90
2019-03-19T08:29:19.804Z,20.55
2019-03-19T08:30:19.819Z,17.65
2019-03-19T08:31:22.460Z,16.53
2019-03-19T08:32:19.781Z,18.50
2019-03-19T08:33:19.773Z,20.16
2019-03-19T08:34:19.769Z,21.67
2019-03-19T08:35:20.224Z,22.96
2019-03-19T08:36:19.722Z,23.34
2019-03-19T08:37:19.723Z,22.78
2019-03-19T08:38:19.707Z,24.14
2019-03-19T08:39:20.762Z,24.13
2019-03-19T08:40:19.723Z,21.72
2019-03-19T08:41:19.846Z,20.77
2019-03-19T08:42:19.700Z,23.15
2019-03-19T08:43:20.439Z,24.08
2019-03-19T08:44:27.426Z,23.59
2019-03-19T08:45:20.664Z,21.39
2019-03-19T08:46:19.938Z,19.64
2019-03-19T08:47:19.602Z,18.07
2019-03-19T08:48:19.608Z,16.72
2019-03-19T08:49:19.691Z,15.59
2019-03-19T08:50:19.574Z,14.54
2019-03-19T08:51:19.571Z,14.15
2019-03-19T08:52:19.558Z,15.68
2019-03-19T08:53:19.537Z,16.56
2019-03-19T08:54:19.527Z,17.83
2019-03-19T08:55:19.638Z,20.18
2019-03-19T08:56:19.517Z,19.31
2019-03-19T08:57:19.497Z,17.16
2019-03-19T08:58:19.509Z,15.46
2019-03-19T08:59:19.605Z,17.02
2019-03-19T09:00:19.467Z,20.31
2019-03-19T09:01:19.574Z,20.96
2019-03-19T09:02:19.436Z,19.39
2019-03-19T09:03:19.434Z,18.43
2019-03-19T09:04:19.409Z,17.16
2019-03-19T09:05:19.510Z,15.94
2019-03-19T09:06:19.409Z,15.02
2019-03-19T09:07:20.189Z,14.43
2019-03-19T09:08:19.363Z,14.03
2019-03-19T09:09:40.371Z,14.54
2019-03-19T09:10:19.546Z,15.59
2019-03-19T09:11:19.367Z,18.38
2019-03-19T09:12:19.339Z,19.26
2019-03-19T09:13:19.555Z,18.98
2019-03-19T09:14:19.302Z,20.48
2019-03-19T09:15:19.332Z,22.07
2019-03-19T09:16:19.305Z,24.24
2019-03-19T09:17:19.277Z,24.84
2019-03-19T09:18:19.464Z,26.29
2019-03-19T09:19:19.249Z,27.18
2019-03-19T09:20:19.255Z,27.90
2019-03-19T09:21:19.234Z,28.64
2019-03-19T09:22:19.960Z,29.20
2019-03-19T09:23:19.205Z,29.71
2019-03-19T09:24:19.633Z,29.14
2019-03-19T09:25:19.176Z,28.20
2019-03-19T09:26:19.164Z,25.46
2019-03-19T09:27:19.190Z,23.34
2019-03-19T09:28:19.192Z,21.40
2019-03-19T09:29:19.363Z,22.25
2019-03-19T09:30:20.105Z,24.53
2019-03-19T09:31:19.116Z,26.96
2019-03-19T09:32:19.108Z,24.33
2019-03-19T09:33:19.742Z,22.04
2019-03-19T09:34:19.081Z,20.09
2019-03-19T09:35:19.099Z,18.60
2019-03-19T09:36:19.252Z,17.44
2019-03-19T09:37:19.102Z,16.61
2019-03-19T09:38:19.044Z,17.02
2019-03-19T09:39:19.025Z,17.67
2019-03-19T09:40:19.019Z,17.19
2019-03-19T09:41:19.094Z,17.36
2019-03-19T09:42:20.365Z,16.91
2019-03-19T09:43:18.979Z,16.17
2019-03-19T09:44:19.108Z,15.58
2019-03-19T09:45:19.025Z,15.44
2019-03-19T09:46:18.949Z,17.19
2019-03-19T09:47:18.950Z,16.94
2019-03-19T09:48:18.930Z,16.21
2019-03-19T09:49:21.089Z,15.31
2019-03-19T09:50:19.240Z,14.77
2019-03-19T09:51:18.906Z,14.03
2019-03-19T09:52:18.885Z,13.52
2019-03-19T09:53:18.971Z,13.27
2019-03-19T09:54:18.858Z,12.93
2019-03-19T09:55:19.040Z,12.67
2019-03-19T09:56:18.849Z,12.46
2019-03-19T09:57:18.821Z,12.36
2019-03-19T09:58:18.939Z,12.29
2019-03-19T09:59:26.826Z,12.20
2019-03-19T10:00:19.798Z,12.18
2019-03-19T10:01:18.778Z,12.15
2019-03-19T10:02:18.769Z,12.03
2019-03-19T10:03:19.014Z,12.25
2019-03-19T10:04:18.932Z,15.28
2019-03-19T10:05:18.805Z,18.34
2019-03-19T10:06:18.724Z,21.39
2019-03-19T10:07:18.847Z,23.95
2019-03-19T10:08:18.705Z,24.47
2019-03-19T10:09:19.098Z,25.96
2019-03-19T10:10:18.681Z,27.48
2019-03-19T10:11:18.666Z,28.41
2019-03-19T10:12:18.665Z,26.40
2019-03-19T10:13:18.661Z,27.21
2019-03-19T10:14:19.042Z,25.80
2019-03-19T10:15:18.637Z,25.04
2019-03-19T10:16:18.963Z,26.19
2019-03-19T10:17:18.613Z,24.85
2019-03-19T10:18:18.604Z,22.57
2019-03-19T10:19:18.925Z,20.58
2019-03-19T10:20:18.568Z,19.16
2019-03-19T10:21:18.573Z,18.18
2019-03-19T10:22:18.734Z,17.44
2019-03-19T10:23:18.554Z,16.86
2019-03-19T10:24:18.691Z,16.09
2019-03-19T10:25:19.084Z,15.29
2019-03-19T10:26:18.749Z,14.81
2019-03-19T10:27:19.659Z,14.18
2019-03-19T10:28:18.549Z,13.70
2019-03-19T10:29:18.544Z,13.30
2019-03-19T10:30:18.456Z,12.95
2019-03-19T10:31:18.754Z,12.65
2019-03-19T10:32:18.715Z,12.49
2019-03-19T10:33:18.419Z,12.58
2019-03-19T10:34:18.413Z,14.85
2019-03-19T10:35:18.411Z,17.65
2019-03-19T10:36:18.411Z,19.81
2019-03-19T10:37:18.373Z,21.91
2019-03-19T10:38:18.598Z,23.71
2019-03-19T10:39:18.418Z,24.42
2019-03-19T10:40:18.348Z,22.47
2019-03-19T10:41:18.350Z,20.43
2019-03-19T10:42:18.321Z,18.71
2019-03-19T10:43:18.318Z,17.83
2019-03-19T10:44:18.476Z,17.90
2019-03-19T10:45:18.291Z,18.50
2019-03-19T10:46:18.327Z,17.51
2019-03-19T10:47:18.267Z,16.78
2019-03-19T10:48:18.258Z,17.26
2019-03-19T10:49:18.251Z,16.60
2019-03-19T10:50:18.623Z,15.54
2019-03-19T10:51:18.585Z,14.79
2019-03-19T10:52:18.226Z,14.33
2019-03-19T10:53:19.504Z,13.75
2019-03-19T10:54:18.702Z,13.99
2019-03-19T10:55:18.197Z,16.47
2019-03-19T10:56:18.281Z,16.43
2019-03-19T10:57:18.158Z,17.01
2019-03-19T10:58:18.185Z,16.76
2019-03-19T10:59:18.492Z,16.02
2019-03-19T11:00:18.118Z,15.46
2019-03-19T11:01:18.118Z,14.92
2019-03-19T11:02:18.102Z,14.51
2019-03-19T11:03:18.105Z,14.12
2019-03-19T11:04:18.087Z,13.74
2019-03-19T11:05:18.242Z,13.53
2019-03-19T11:06:18.185Z,13.28
2019-03-19T11:07:18.053Z,12.91
2019-03-19T11:08:18.128Z,12.93
2019-03-19T11:09:18.056Z,12.98
2019-03-19T11:11:28.132Z,15.42
2019-03-19T11:12:27.850Z,18.59
2019-03-19T11:13:28.148Z,18.15
2019-03-19T11:14:27.827Z,17.27
2019-03-19T11:15:27.825Z,16.78
2019-03-19T11:16:27.992Z,16.35
2019-03-19T11:17:28.585Z,15.55
2019-03-19T11:18:27.970Z,15.06
2019-03-19T11:19:27.897Z,14.78
2019-03-19T11:20:27.785Z,14.44
2019-03-19T11:21:28.217Z,14.03
2019-03-19T11:22:27.739Z,14.30
2019-03-19T11:23:28.059Z,14.20
2019-03-19T11:24:29.646Z,13.92
2019-03-19T11:25:27.709Z,13.90
2019-03-19T11:26:27.711Z,13.79
2019-03-19T11:27:27.691Z,13.75
2019-03-19T11:28:27.869Z,13.71
2019-03-19T11:29:27.666Z,13.77
2019-03-19T11:30:27.661Z,13.60
2019-03-19T11:31:27.648Z,13.78
2019-03-19T11:32:27.655Z,13.67
2019-03-19T11:33:27.655Z,13.87
2019-03-19T11:34:27.900Z,13.92
2019-03-19T11:35:27.614Z,14.92
2019-03-19T11:36:27.922Z,14.50
2019-03-19T11:37:27.589Z,15.17
2019-03-19T11:38:27.586Z,17.11
2019-03-19T11:39:27.558Z,18.33
2019-03-19T11:40:27.552Z,19.70
2019-03-19T11:41:27.712Z,21.11
2019-03-19T11:42:27.552Z,21.57
2019-03-19T11:43:27.525Z,22.29
2019-03-19T11:44:27.502Z,22.38
2019-03-19T11:45:27.503Z,21.60
2019-03-19T11:46:27.779Z,19.69
2019-03-19T11:47:27.475Z,17.98
2019-03-19T11:48:27.462Z,16.64
2019-03-19T11:49:27.458Z,15.94
2019-03-19T11:50:27.519Z,16.76
2019-03-19T11:51:28.919Z,15.72
2019-03-19T11:52:27.420Z,15.03
2019-03-19T11:53:27.409Z,14.32
2019-03-19T11:54:27.392Z,13.79
2019-03-19T11:55:27.408Z,13.33
2019-03-19T11:56:27.398Z,12.82
2019-03-19T11:57:27.524Z,12.40
2019-03-19T11:58:27.349Z,12.03
2019-03-19T11:59:28.401Z,11.77
2019-03-19T12:00:27.332Z,11.83
2019-03-19T12:01:27.330Z,11.77
2019-03-19T12:02:27.497Z,11.65
2019-03-19T12:03:27.297Z,11.59
2019-03-19T12:04:27.309Z,11.62
2019-03-19T12:05:27.496Z,11.68
2019-03-19T12:06:27.405Z,11.62
2019-03-19T12:07:27.255Z,11.69
2019-03-19T12:08:27.344Z,11.77
2019-03-19T12:09:27.437Z,11.91
2019-03-19T12:10:27.276Z,12.07
2019-03-19T12:11:38.205Z,12.27
2019-03-19T12:12:27.667Z,12.37
2019-03-19T12:13:27.189Z,13.01
2019-03-19T12:14:27.182Z,14.96
2019-03-19T12:15:27.181Z,15.35
2019-03-19T12:16:27.158Z,14.72
2019-03-19T12:17:27.265Z,14.63
2019-03-19T12:18:27.183Z,14.17
2019-03-19T12:19:27.203Z,13.87
2019-03-19T12:20:27.413Z,13.75
2019-03-19T12:21:27.089Z,14.45
2019-03-19T12:22:27.307Z,15.91
2019-03-19T12:23:27.100Z,15.07
2019-03-19T12:24:27.075Z,14.77
2019-03-19T12:25:27.155Z,14.58
2019-03-19T12:26:27.045Z,14.08
2019-03-19T12:27:27.043Z,13.75
2019-03-19T12:28:27.259Z,13.52
2019-03-19T12:29:27.413Z,13.28
2019-03-19T12:30:27.037Z,12.98
2019-03-19T12:31:27.003Z,12.64
2019-03-19T12:32:26.972Z,12.46
2019-03-19T12:33:27.228Z,12.32
2019-03-19T12:34:26.959Z,12.04
2019-03-19T12:35:26.946Z,11.75
2019-03-19T12:36:26.960Z,11.62
2019-03-19T12:37:26.916Z,11.37
2019-03-19T12:38:26.946Z,11.12
2019-03-19T12:39:27.198Z,11.04
2019-03-19T12:40:36.190Z,10.81
2019-03-19T12:41:27.878Z,10.76
2019-03-19T12:43:06.182Z,10.69
2019-03-19T12:43:26.873Z,10.63
2019-03-19T12:44:27.268Z,10.57
2019-03-19T12:45:26.854Z,10.57
2019-03-19T12:46:26.826Z,10.68
2019-03-19T12:47:26.812Z,10.63
2019-03-19T12:48:26.792Z,10.68
2019-03-19T12:49:26.789Z,10.72
2019-03-19T12:50:26.978Z,10.84
2019-03-19T12:51:26.776Z,11.12
2019-03-19T12:52:26.803Z,11.68
2019-03-19T12:53:27.060Z,11.72
2019-03-19T12:54:26.900Z,12.03
2019-03-19T12:55:26.739Z,12.15
2019-03-19T12:56:26.709Z,12.28
2019-03-19T12:57:26.853Z,12.37
2019-03-19T12:58:26.700Z,12.49
2019-03-19T12:59:27.158Z,12.49
2019-03-19T13:00:34.333Z,12.49
2019-03-19T13:01:28.639Z,12.45
2019-03-19T13:02:26.882Z,12.37
2019-03-19T13:03:26.683Z,12.18
2019-03-19T13:04:26.681Z,11.94
2019-03-19T13:05:26.685Z,11.73
2019-03-19T13:06:26.694Z,11.62
2019-03-19T13:07:26.715Z,11.30